createdAt,value
2022-12-28T00:03:54.311Z,3.25
2022-12-28T00:07:57.345Z,2.55
2022-12-28T00:12:02.086Z,3.55
2022-12-28T00:16:09.500Z,3.28
2022-12-28T00:20:13.884Z,3.53
2022-12-28T00:24:20.228Z,2.97
2022-12-28T00:28:24.903Z,2.72
2022-12-28T00:32:28.293Z,3.38
2022-12-28T00:37:09.902Z,3.78
2022-12-28T00:40:55.166Z,2.58
2022-12-28T00:45:00.137Z,3.97
2022-12-28T00:49:04.304Z,4.85
2022-12-28T00:53:07.585Z,5.05
2022-12-28T00:57:10.567Z,5.47
2022-12-28T01:01:18.377Z,3.97
2022-12-28T01:05:21.638Z,3.40
2022-12-28T01:09:24.995Z,5.10
2022-12-28T01:13:28.091Z,5.28
2022-12-28T01:17:32.838Z,4.43
2022-12-28T01:21:37.379Z,4.25
2022-12-28T01:25:40.961Z,3.75
2022-12-28T01:29:43.974Z,4.35
2022-12-28T01:33:49.303Z,4.05
2022-12-28T01:37:52.341Z,4.63
2022-12-28T01:41:55.737Z,4.65
2022-12-28T01:45:58.929Z,4.65
2022-12-28T01:50:09.224Z,4.25
2022-12-28T01:54:12.994Z,4.28
2022-12-28T01:58:20.652Z,5.10
2022-12-28T02:02:24.370Z,4.00
2022-12-28T02:06:29.407Z,3.50
2022-12-28T02:10:42.996Z,3.83
2022-12-28T02:14:49.317Z,3.63
2022-12-28T02:18:53.934Z,4.57
2022-12-28T02:23:24.652Z,5.07
2022-12-28T02:27:39.392Z,5.38
2022-12-28T02:31:51.424Z,5.50
2022-12-28T02:36:00.005Z,5.15
2022-12-28T02:40:07.290Z,5.05
2022-12-28T02:44:11.400Z,5.45
2022-12-28T02:48:33.225Z,5.35
2022-12-28T02:53:07.268Z,5.07
2022-12-28T02:57:24.808Z,5.82
2022-12-28T03:01:51.337Z,5.88
2022-12-28T03:06:30.628Z,4.45
2022-12-28T03:10:43.215Z,5.13
2022-12-28T03:19:18.179Z,4.68
2022-12-28T03:23:41.537Z,5.18
2022-12-28T03:28:03.308Z,4.97
2022-12-28T03:32:07.711Z,4.63
2022-12-28T03:36:17.075Z,4.22
2022-12-28T03:40:31.432Z,5.35
2022-12-28T03:44:37.130Z,4.40
2022-12-28T03:48:40.854Z,3.60
2022-12-28T03:52:44.541Z,4.18
2022-12-28T03:56:51.245Z,3.75
2022-12-28T04:00:54.513Z,3.25
2022-12-28T04:04:57.919Z,2.80
2022-12-28T04:09:01.270Z,3.50
2022-12-28T04:13:05.736Z,3.55
2022-12-28T04:17:09.059Z,4.30
2022-12-28T04:21:13.084Z,2.95
2022-12-28T04:25:16.495Z,2.22
2022-12-28T04:29:21.272Z,2.03
2022-12-28T04:33:24.941Z,2.80
2022-12-28T04:37:28.144Z,2.88
2022-12-28T04:41:31.396Z,2.78
2022-12-28T04:45:36.166Z,3.20
2022-12-28T04:49:39.456Z,3.80
2022-12-28T04:53:43.726Z,3.83
2022-12-28T04:57:47.509Z,5.35
2022-12-28T05:01:52.070Z,5.43
2022-12-28T05:05:55.270Z,6.00
2022-12-28T05:09:58.525Z,4.88
2022-12-28T05:14:01.810Z,5.78
2022-12-28T05:18:06.597Z,6.82
2022-12-28T05:22:39.085Z,5.10
2022-12-28T05:26:44.125Z,6.13
2022-12-28T05:30:47.227Z,6.18
2022-12-28T05:34:52.037Z,5.32
2022-12-28T05:38:56.093Z,5.13
2022-12-28T05:42:59.535Z,4.93
2022-12-28T05:47:02.805Z,5.95
2022-12-28T05:51:10.027Z,3.20
2022-12-28T05:55:12.999Z,5.15
2022-12-28T05:59:16.200Z,3.50
2022-12-28T06:03:19.739Z,2.20
2022-12-28T06:07:24.672Z,1.77
2022-12-28T06:11:29.417Z,2.42
2022-12-28T06:15:32.589Z,2.17
2022-12-28T06:19:35.754Z,2.38
2022-12-28T06:23:40.326Z,2.35
2022-12-28T06:27:43.458Z,2.13
2022-12-28T06:31:49.453Z,2.90
2022-12-28T06:35:52.845Z,2.85
2022-12-28T06:39:57.567Z,2.65
2022-12-28T06:44:01.462Z,2.15
2022-12-28T06:48:04.753Z,3.35
2022-12-28T06:52:08.115Z,3.13
2022-12-28T06:56:18.774Z,4.20
2022-12-28T07:00:22.243Z,4.68
2022-12-28T07:04:25.283Z,4.20
2022-12-28T07:08:28.583Z,5.78
2022-12-28T07:12:33.103Z,6.07
2022-12-28T07:20:40.673Z,4.68
2022-12-28T07:24:44.056Z,5.07
2022-12-28T07:28:50.603Z,4.30
2022-12-28T07:32:53.892Z,3.65
2022-12-28T07:36:56.916Z,3.80
2022-12-28T07:41:03.543Z,3.42
2022-12-28T07:45:11.180Z,3.97
2022-12-28T07:49:14.482Z,4.68
2022-12-28T07:53:22.071Z,5.57
2022-12-28T07:57:25.684Z,5.05
2022-12-28T08:01:32.172Z,3.42
2022-12-28T08:05:35.449Z,3.63
2022-12-28T08:09:38.931Z,1.88
2022-12-28T08:13:43.830Z,2.00
2022-12-28T08:17:48.372Z,2.97
2022-12-28T08:21:51.706Z,1.70
2022-12-28T08:25:54.742Z,2.03
2022-12-28T08:29:59.076Z,1.60
2022-12-28T08:34:06.943Z,5.70
2022-12-28T08:38:10.243Z,5.18
2022-12-28T08:42:13.448Z,4.85
2022-12-28T08:46:18.779Z,4.53
2022-12-28T08:50:29.541Z,5.07
2022-12-28T08:54:34.856Z,4.63
2022-12-28T08:58:38.510Z,5.63
2022-12-28T09:02:41.744Z,4.43
2022-12-28T09:06:46.983Z,3.92
2022-12-28T09:10:50.374Z,3.35
2022-12-28T09:14:53.505Z,4.97
2022-12-28T09:18:58.678Z,6.05
2022-12-28T09:23:03.513Z,5.53
2022-12-28T09:27:06.598Z,6.15
2022-12-28T09:31:11.740Z,5.95
2022-12-28T09:35:14.950Z,4.75
2022-12-28T09:39:23.456Z,3.30
2022-12-28T09:43:28.367Z,4.40
2022-12-28T09:47:39.929Z,3.47
2022-12-28T09:51:52.197Z,3.22
2022-12-28T09:56:01.434Z,3.35
2022-12-28T10:00:06.375Z,4.40
2022-12-28T10:04:12.467Z,4.10
2022-12-28T10:08:17.791Z,3.97
2022-12-28T10:12:24.932Z,4.35
2022-12-28T10:16:31.847Z,4.10
2022-12-28T10:20:35.622Z,3.40
2022-12-28T10:24:41.751Z,4.05
2022-12-28T10:28:50.527Z,2.88
2022-12-28T10:33:02.141Z,2.72
2022-12-28T10:37:13.999Z,3.40
2022-12-28T10:41:20.053Z,2.63
2022-12-28T10:45:28.784Z,2.60
2022-12-28T10:49:37.593Z,2.15
2022-12-28T10:53:44.291Z,2.28
2022-12-28T10:58:27.044Z,2.20
2022-12-28T11:02:29.360Z,2.30
2022-12-28T11:06:34.672Z,2.78
2022-12-28T11:10:38.059Z,2.33
2022-12-28T11:14:41.587Z,3.03
2022-12-28T11:18:46.290Z,2.42
2022-12-28T11:22:49.782Z,2.80
2022-12-28T11:32:44.176Z,2.55
2022-12-28T11:36:49.804Z,2.50
2022-12-28T11:40:54.403Z,2.45
2022-12-28T11:44:59.141Z,2.50
2022-12-28T11:49:03.645Z,2.72
2022-12-28T11:57:35.397Z,2.55
2022-12-28T12:05:54.511Z,2.40
2022-12-28T12:10:34.107Z,2.38
2022-12-28T12:14:43.915Z,3.00
2022-12-28T12:18:51.893Z,2.15
2022-12-28T12:23:00.757Z,1.80
2022-12-28T12:27:13.742Z,2.17
2022-12-28T12:31:27.132Z,1.77
2022-12-28T12:35:36.321Z,2.40
2022-12-28T12:40:17.281Z,2.50
2022-12-28T12:44:34.762Z,2.25
2022-12-28T12:49:01.909Z,3.05
2022-12-28T12:53:15.910Z,2.83
2022-12-28T12:57:26.798Z,2.80
2022-12-28T13:01:38.277Z,2.47
2022-12-28T13:05:46.279Z,3.25
2022-12-28T13:09:50.331Z,3.80
2022-12-28T13:13:55.495Z,3.53
2022-12-28T13:18:42.875Z,4.03
2022-12-28T13:22:32.888Z,3.38
2022-12-28T13:26:36.216Z,3.13
2022-12-28T13:30:39.912Z,4.30
2022-12-28T13:34:51.001Z,4.70
2022-12-28T13:39:13.582Z,3.75
2022-12-28T13:44:08.830Z,3.53
2022-12-28T13:48:12.506Z,4.28
2022-12-28T13:52:22.304Z,4.07
2022-12-28T13:56:29.705Z,3.92
2022-12-28T14:00:34.989Z,3.75
2022-12-28T14:04:54.084Z,4.38
2022-12-28T14:09:03.838Z,3.58
2022-12-28T14:13:11.758Z,3.47
2022-12-28T14:17:15.825Z,3.20
2022-12-28T14:21:34.185Z,3.50
2022-12-28T14:25:43.381Z,2.67
2022-12-28T14:29:48.228Z,3.38
2022-12-28T14:33:54.216Z,2.42
2022-12-28T14:37:59.366Z,2.67
2022-12-28T14:42:04.129Z,2.60
2022-12-28T14:46:29.406Z,2.65
2022-12-28T14:50:33.096Z,3.30
2022-12-28T14:54:45.419Z,3.10
2022-12-28T14:58:51.637Z,2.60
2022-12-28T15:02:57.496Z,3.83
2022-12-28T15:07:00.549Z,3.17
2022-12-28T15:15:10.373Z,3.70
2022-12-28T15:19:15.014Z,4.00
2022-12-28T15:23:18.135Z,3.75
2022-12-28T15:27:21.208Z,3.83
2022-12-28T15:31:24.566Z,3.53
2022-12-28T15:35:29.562Z,5.40
2022-12-28T15:39:32.735Z,4.30
2022-12-28T15:43:35.808Z,3.83
2022-12-28T15:47:39.001Z,3.85
2022-12-28T15:51:44.734Z,4.75
2022-12-28T15:56:00.036Z,4.05
2022-12-28T16:00:04.169Z,3.88
2022-12-28T16:04:07.536Z,4.07
2022-12-28T16:08:12.278Z,5.95
2022-12-28T16:12:18.456Z,4.03
2022-12-28T16:16:22.670Z,4.30
2022-12-28T16:20:25.866Z,4.18
2022-12-28T16:24:30.653Z,5.15
2022-12-28T16:28:34.071Z,6.47
2022-12-28T16:32:37.575Z,4.90
2022-12-28T16:36:41.723Z,5.25
2022-12-28T16:40:46.540Z,4.88
2022-12-28T16:44:51.141Z,5.90
2022-12-28T16:48:54.281Z,4.97
2022-12-28T16:53:01.159Z,4.45
2022-12-28T16:57:05.736Z,5.13
2022-12-28T17:01:11.245Z,5.28
2022-12-28T17:05:14.880Z,5.55
2022-12-28T17:09:20.338Z,4.97
2022-12-28T17:13:25.054Z,4.00
2022-12-28T17:17:28.529Z,5.15
2022-12-28T17:21:33.196Z,4.97
2022-12-28T17:25:37.719Z,5.05
2022-12-28T17:29:42.458Z,4.97
2022-12-28T17:33:47.057Z,4.40
2022-12-28T17:37:51.037Z,4.53
2022-12-28T17:41:54.322Z,5.25
2022-12-28T17:46:02.489Z,5.18
2022-12-28T17:50:06.589Z,5.40
2022-12-28T17:54:12.243Z,5.57
2022-12-28T17:58:17.092Z,5.30
2022-12-28T18:02:22.191Z,4.72
2022-12-28T18:06:26.132Z,6.03
2022-12-28T18:10:29.393Z,6.28
2022-12-28T18:14:32.573Z,5.10
2022-12-28T18:18:37.570Z,5.55
2022-12-28T18:22:43.433Z,6.30
2022-12-28T18:26:46.700Z,6.60
2022-12-28T18:30:50.363Z,6.40
2022-12-28T18:34:54.792Z,7.65
2022-12-28T18:38:58.140Z,6.20
2022-12-28T18:43:01.303Z,8.45
2022-12-28T18:47:04.747Z,8.23
2022-12-28T18:51:12.078Z,7.63
2022-12-28T18:55:15.712Z,7.60
2022-12-28T18:59:19.017Z,7.65
2022-12-28T19:03:22.576Z,8.18
2022-12-28T19:07:27.488Z,7.85
2022-12-28T19:11:31.291Z,7.07
2022-12-28T19:15:34.677Z,6.85
2022-12-28T19:19:38.083Z,6.35
2022-12-28T19:23:42.615Z,6.88
2022-12-28T19:27:45.932Z,7.40
2022-12-28T19:31:50.398Z,6.07
2022-12-28T19:35:53.685Z,6.55
2022-12-28T19:39:58.249Z,4.60
2022-12-28T19:44:01.808Z,6.00
2022-12-28T19:48:05.296Z,7.10
2022-12-28T19:52:08.538Z,5.63
2022-12-28T19:56:16.648Z,6.35
2022-12-28T20:00:20.231Z,4.40
2022-12-28T20:04:23.498Z,4.40
2022-12-28T20:08:26.981Z,4.28
2022-12-28T20:12:32.164Z,7.60
2022-12-28T20:16:37.302Z,9.80
2022-12-28T20:21:16.787Z,6.72
2022-12-28T20:25:03.922Z,7.75
2022-12-28T20:29:08.508Z,6.47
2022-12-28T20:33:11.783Z,6.68
2022-12-28T20:37:15.236Z,6.40
2022-12-28T20:41:38.061Z,5.90
2022-12-28T20:49:46.500Z,5.80
2022-12-28T20:53:51.347Z,6.78
2022-12-28T20:57:55.314Z,6.35
2022-12-28T21:02:00.236Z,6.45
2022-12-28T21:06:04.663Z,6.07
2022-12-28T21:10:10.551Z,6.00
2022-12-28T21:14:13.934Z,4.68
2022-12-28T21:18:20.328Z,5.95
2022-12-28T21:22:23.491Z,5.45
2022-12-28T21:26:27.022Z,6.63
2022-12-28T21:30:30.572Z,5.30
2022-12-28T21:34:35.462Z,5.47
2022-12-28T21:38:43.552Z,5.53
2022-12-28T21:42:47.588Z,6.28
2022-12-28T21:46:52.591Z,7.35
2022-12-28T21:50:57.356Z,7.38
2022-12-28T21:55:22.340Z,6.82
2022-12-28T21:59:27.495Z,6.30
2022-12-28T22:03:49.059Z,5.97
2022-12-28T22:08:14.804Z,7.72
2022-12-28T22:12:35.418Z,6.60
2022-12-28T22:16:38.896Z,7.90
2022-12-28T22:20:42.511Z,9.25
2022-12-28T22:24:47.209Z,6.93
2022-12-28T22:28:50.359Z,7.65
2022-12-28T22:32:53.808Z,8.35
2022-12-28T22:36:57.242Z,8.00
2022-12-28T22:41:02.363Z,7.65
2022-12-28T22:45:05.974Z,8.63
2022-12-28T22:49:09.535Z,6.43
2022-12-28T22:53:12.939Z,8.35
2022-12-28T22:57:17.798Z,7.00
2022-12-28T23:01:21.873Z,7.35
2022-12-28T23:05:25.232Z,7.05
2022-12-28T23:09:28.502Z,7.78
2022-12-28T23:13:34.662Z,6.97
2022-12-28T23:17:37.978Z,7.95
2022-12-28T23:21:58.571Z,6.80
2022-12-28T23:26:19.434Z,7.35
2022-12-28T23:30:29.819Z,7.20
2022-12-28T23:34:33.210Z,6.28
2022-12-28T23:38:36.399Z,5.88
2022-12-28T23:42:41.415Z,6.85
2022-12-28T23:46:47.529Z,5.50
2022-12-28T23:50:50.771Z,5.50
2022-12-28T23:54:53.806Z,6.97
2022-12-28T23:58:57.072Z,5.85
